createdAt,value
2022-11-26T01:38:43.236Z,22.52
2022-11-26T01:46:48.949Z,23.90
2022-11-26T01:54:57.423Z,33.47
2022-11-26T02:03:03.468Z,29.70
2022-11-26T02:11:23.227Z,27.60
2022-11-26T02:19:58.074Z,28.67
2022-11-26T02:28:27.891Z,28.95
2022-11-26T02:36:41.728Z,24.90
2022-11-26T02:44:49.565Z,25.58
2022-11-26T02:53:00.780Z,27.10
2022-11-26T03:01:10.246Z,36.00
2022-11-26T03:09:20.281Z,34.05
2022-11-26T03:17:25.664Z,28.23
2022-11-26T03:25:34.142Z,29.80
2022-11-26T03:33:39.509Z,24.48
2022-11-26T03:41:47.456Z,29.83
2022-11-26T03:49:52.874Z,31.55
2022-11-26T03:58:00.789Z,32.45
2022-11-26T04:06:06.113Z,31.17
2022-11-26T04:14:14.000Z,34.53
2022-11-26T04:22:19.342Z,32.60
2022-11-26T04:30:29.828Z,34.92
2022-11-26T04:38:35.279Z,32.95
2022-11-26T04:46:43.178Z,34.22
2022-11-26T04:54:48.507Z,32.67
2022-11-26T05:02:56.540Z,29.65
2022-11-26T05:11:03.441Z,32.00
2022-11-26T05:19:11.509Z,33.63
2022-11-26T05:27:18.910Z,32.42
2022-11-26T05:35:26.934Z,29.35
2022-11-26T05:43:32.527Z,27.40
2022-11-26T05:51:40.595Z,32.38
2022-11-26T05:59:47.117Z,27.48
2022-11-26T06:07:55.205Z,30.67
2022-11-26T06:16:00.598Z,32.17
2022-11-26T06:24:09.405Z,29.33
2022-11-26T06:32:14.734Z,29.08
2022-11-26T06:40:24.298Z,30.58
2022-11-26T06:48:29.656Z,30.55
2022-11-26T06:56:38.101Z,30.40
2022-11-26T07:04:43.554Z,37.88
2022-11-26T07:12:51.454Z,31.38
2022-11-26T07:20:57.026Z,33.60
2022-11-26T07:29:04.943Z,38.28
2022-11-26T08:12:00.952Z,34.67
2022-11-26T08:20:06.707Z,32.88
2022-11-26T08:28:15.119Z,29.15
2022-11-26T08:36:23.390Z,28.30
2022-11-26T08:44:31.976Z,29.73
2022-11-26T08:52:37.566Z,33.45
2022-11-26T09:00:45.551Z,32.28
2022-11-26T09:09:03.454Z,35.42
2022-11-26T09:17:11.818Z,29.13
2022-11-26T09:25:17.208Z,27.63
2022-11-26T09:33:25.129Z,28.10
2022-11-26T09:41:43.862Z,27.10
2022-11-26T09:50:01.959Z,27.95
2022-11-26T09:58:14.953Z,27.50
2022-11-26T10:06:33.269Z,28.50
2022-11-26T10:14:53.780Z,25.80
2022-11-26T10:23:07.066Z,34.53
2022-11-26T10:31:19.634Z,31.60
2022-11-26T10:39:27.643Z,33.00
2022-11-26T10:47:34.760Z,32.00
2022-11-26T10:55:46.494Z,25.90
2022-11-26T11:04:10.274Z,27.88
2022-11-26T11:20:34.047Z,24.00
2022-11-26T11:28:43.465Z,24.17
2022-11-26T11:37:02.432Z,23.13
2022-11-26T11:45:25.589Z,19.38
2022-11-26T11:53:42.056Z,18.40
2022-11-26T12:02:03.371Z,20.13
2022-11-26T12:10:15.267Z,21.02
2022-11-26T12:18:34.205Z,22.20
2022-11-26T12:26:45.296Z,21.10
2022-11-26T12:34:56.282Z,21.80
2022-11-26T12:43:06.780Z,27.23
2022-11-26T12:51:32.381Z,24.80
2022-11-26T12:59:45.057Z,30.13
2022-11-26T13:08:14.089Z,27.67
2022-11-26T13:16:34.987Z,30.20
2022-11-26T13:25:07.006Z,29.25
2022-11-26T13:33:55.813Z,29.35
2022-11-26T13:42:32.952Z,29.88
2022-11-26T13:50:45.506Z,26.58
2022-11-26T13:58:57.896Z,27.77
2022-11-26T14:07:24.084Z,27.38
2022-11-26T14:15:59.033Z,26.42
2022-11-26T14:24:06.956Z,25.67
2022-11-26T14:32:17.838Z,34.53
2022-11-26T14:40:26.277Z,28.30
2022-11-26T14:48:37.044Z,27.52
2022-11-26T14:56:46.364Z,26.55
2022-11-26T15:05:04.061Z,26.67
2022-11-26T15:13:15.288Z,28.00
2022-11-26T15:21:27.095Z,26.85
2022-11-26T15:29:35.578Z,29.10
2022-11-26T15:37:48.274Z,27.27
2022-11-26T15:45:56.305Z,37.38
2022-11-26T15:54:06.922Z,45.03
2022-11-26T16:02:21.351Z,36.25
2022-11-26T16:10:35.651Z,36.30
2022-11-26T16:18:45.363Z,33.92
2022-11-26T16:27:01.367Z,38.70
2022-11-26T16:35:29.856Z,39.38
2022-11-26T16:43:35.202Z,41.33
2022-11-26T16:51:40.540Z,43.80
2022-11-26T16:59:52.655Z,45.38
2022-11-26T17:08:01.298Z,53.13
2022-11-26T17:16:16.418Z,40.22
2022-11-26T17:24:24.676Z,41.97
2022-11-26T17:32:36.359Z,38.35
2022-11-26T17:40:41.665Z,38.17
2022-11-26T17:48:49.996Z,41.17
2022-11-26T17:56:56.336Z,37.13
2022-11-26T18:05:05.173Z,46.67
2022-11-26T18:13:10.720Z,38.00
2022-11-26T18:21:18.796Z,39.08
2022-11-26T18:29:24.332Z,42.38
2022-11-26T18:37:32.840Z,46.90
2022-11-26T18:45:38.626Z,47.00
2022-11-26T18:53:47.748Z,41.53
2022-11-26T19:01:53.127Z,44.17
2022-11-26T19:10:01.060Z,48.08
2022-11-26T19:18:06.516Z,50.28
2022-11-26T19:26:14.868Z,46.22
2022-11-26T19:34:20.208Z,56.70
2022-11-26T19:42:30.111Z,58.00
2022-11-26T19:50:35.485Z,67.82
2022-11-26T19:58:43.722Z,69.80
2022-11-26T20:06:49.077Z,53.25
2022-11-26T20:14:57.199Z,51.40
2022-11-26T20:23:02.573Z,60.78
2022-11-26T20:31:11.211Z,45.35
2022-11-26T20:39:18.574Z,42.35
2022-11-26T20:47:28.067Z,44.97
2022-11-26T20:55:33.497Z,35.22
2022-11-26T21:03:41.421Z,40.05
2022-11-26T21:11:46.745Z,36.83
2022-11-26T21:19:55.080Z,37.78
2022-11-26T21:28:00.546Z,41.45
2022-11-26T21:36:15.375Z,45.22
2022-11-26T21:44:20.931Z,47.75
2022-11-26T21:52:28.938Z,40.30
2022-11-26T22:00:34.367Z,56.63
2022-11-26T22:08:44.035Z,45.80
2022-11-26T22:16:51.011Z,42.95
2022-11-26T22:24:58.985Z,53.97
2022-11-26T22:33:07.586Z,68.85
2022-11-26T22:41:16.930Z,72.15
2022-11-26T22:49:24.479Z,62.47
2022-11-26T22:57:32.445Z,56.40
2022-11-26T23:05:41.565Z,55.38
2022-11-26T23:13:51.577Z,51.78
2022-11-26T23:22:00.087Z,54.45
2022-11-26T23:30:13.593Z,50.50
2022-11-26T23:38:25.712Z,52.97
2022-11-26T23:46:35.850Z,46.88
2022-11-26T23:54:45.060Z,52.47
